createdAt,value
2019-05-10T00:00:05.813Z,36.67
2019-05-10T00:03:02.149Z,33.67
2019-05-10T00:06:00.431Z,34.83
2019-05-10T00:08:47.354Z,32.17
2019-05-10T00:11:38.642Z,34.83
2019-05-10T00:14:37.741Z,35.73
2019-05-10T00:17:24.219Z,31.93
2019-05-10T00:20:06.810Z,38.43
2019-05-10T00:22:49.625Z,34.03
2019-05-10T00:25:30.898Z,44.60
2019-05-10T00:28:11.221Z,35.05
2019-05-10T00:30:52.201Z,31.13
2019-05-10T00:33:33.591Z,39.33
2019-05-10T00:36:22.506Z,33.20
2019-05-10T00:39:04.364Z,35.43
2019-05-10T00:41:46.040Z,36.20
2019-05-10T00:44:34.166Z,30.33
2019-05-10T00:47:15.039Z,30.20
2019-05-10T00:52:55.273Z,34.40
2019-05-10T00:55:35.168Z,37.77
2019-05-10T00:58:13.521Z,33.47
2019-05-10T01:01:00.090Z,32.27
2019-05-10T01:03:41.011Z,32.33
2019-05-10T01:12:25.972Z,37.37
2019-05-10T01:15:05.020Z,52.90
2019-05-10T01:17:45.196Z,40.93
2019-05-10T01:20:25.250Z,32.47
2019-05-10T01:26:05.073Z,32.63
2019-05-10T01:28:49.237Z,33.97
2019-05-10T01:31:40.178Z,42.27
2019-05-10T01:34:20.159Z,44.30
2019-05-10T01:37:00.604Z,39.30
2019-05-10T01:39:39.366Z,35.30
2019-05-10T01:45:15.090Z,35.13
2019-05-10T01:47:59.342Z,39.47
2019-05-10T01:50:42.303Z,39.67
2019-05-10T01:53:23.019Z,34.57
2019-05-10T01:56:05.210Z,33.13
2019-05-10T01:58:47.260Z,37.03
2019-05-10T02:01:27.706Z,34.73
2019-05-10T02:04:08.899Z,31.93
2019-05-10T02:06:51.758Z,34.43
2019-05-10T02:15:28.509Z,31.63
2019-05-10T02:18:14.711Z,34.00
2019-05-10T02:20:55.081Z,35.47
2019-05-10T02:23:37.538Z,34.27
2019-05-10T02:26:18.463Z,31.13
2019-05-10T02:29:00.677Z,35.80
2019-05-10T02:31:43.610Z,38.00
2019-05-10T02:34:24.805Z,25.07
2019-05-10T02:37:06.622Z,26.90
2019-05-10T02:39:57.940Z,30.47
2019-05-10T02:42:40.589Z,30.10
2019-05-10T02:45:20.000Z,28.87
2019-05-10T02:47:57.923Z,42.67
2019-05-10T02:50:35.765Z,31.17
2019-05-10T02:53:15.943Z,34.93
2019-05-10T02:58:54.616Z,34.23
2019-05-10T03:01:34.873Z,31.70
2019-05-10T03:04:15.036Z,31.10
2019-05-10T03:10:13.444Z,31.77
2019-05-10T03:12:52.322Z,33.30
2019-05-10T03:15:33.296Z,25.03
2019-05-10T03:24:27.596Z,24.73
2019-05-10T03:27:18.092Z,24.60
2019-05-10T03:29:58.051Z,29.77
2019-05-10T03:32:40.147Z,26.67
2019-05-10T03:35:19.584Z,26.67
2019-05-10T03:40:59.401Z,21.37
2019-05-10T03:43:40.623Z,23.40
2019-05-10T03:46:23.875Z,21.53
2019-05-10T03:49:05.889Z,19.80
2019-05-10T03:51:53.684Z,18.30
2019-05-10T03:54:36.726Z,17.80
2019-05-10T03:57:19.170Z,18.30
2019-05-10T04:00:00.492Z,22.87
2019-05-10T04:02:43.022Z,21.47
2019-05-10T04:05:26.503Z,17.90
2019-05-10T04:08:06.234Z,15.17
2019-05-10T04:10:48.204Z,20.27
2019-05-10T04:13:32.948Z,23.23
2019-05-10T04:22:25.547Z,29.37
2019-05-10T04:25:08.147Z,40.50
2019-05-10T04:27:50.463Z,36.00
2019-05-10T04:30:31.780Z,26.67
2019-05-10T04:36:12.922Z,17.23
2019-05-10T04:38:58.296Z,19.47
2019-05-10T04:41:40.575Z,16.85
2019-05-10T04:44:24.501Z,18.07
2019-05-10T04:47:36.112Z,14.83
2019-05-10T04:50:20.570Z,14.03
2019-05-10T04:56:03.057Z,15.63
2019-05-10T04:58:43.412Z,13.87
2019-05-10T05:01:29.589Z,17.00
2019-05-10T05:04:19.772Z,13.37
2019-05-10T05:07:07.871Z,12.07
2019-05-10T05:12:53.473Z,12.67
2019-05-10T05:15:37.690Z,20.62
2019-05-10T05:18:28.218Z,17.80
2019-05-10T05:21:15.484Z,17.53
2019-05-10T05:23:55.089Z,29.63
2019-05-10T05:26:44.115Z,17.33
2019-05-10T05:37:15.916Z,18.53
2019-05-10T05:43:45.808Z,18.75
2019-05-10T05:46:32.410Z,18.10
2019-05-10T05:49:13.964Z,19.57
2019-05-10T05:52:04.623Z,20.80
2019-05-10T05:57:49.671Z,16.17
2019-05-10T06:00:44.400Z,15.07
2019-05-10T06:03:27.487Z,15.30
2019-05-10T06:06:15.341Z,12.57
2019-05-10T06:09:01.370Z,13.53
2019-05-10T06:14:49.542Z,13.50
2019-05-10T06:17:28.836Z,12.73
2019-05-10T06:20:07.509Z,12.73
2019-05-10T06:23:05.679Z,12.70
2019-05-10T06:25:46.881Z,11.77
2019-05-10T06:28:57.386Z,12.77
2019-05-10T06:31:18.055Z,10.73
2019-05-10T06:34:00.010Z,13.03
2019-05-10T06:36:45.998Z,13.50
2019-05-10T06:39:25.911Z,10.67
2019-05-10T06:42:07.554Z,13.53
2019-05-10T06:44:49.462Z,13.30
2019-05-10T06:47:36.184Z,11.20
2019-05-10T06:54:44.186Z,10.27
2019-05-10T07:01:07.027Z,9.97
2019-05-10T07:03:54.329Z,12.60
2019-05-10T07:06:36.443Z,12.90
2019-05-10T07:12:21.935Z,10.90
2019-05-10T07:17:57.594Z,9.50
2019-05-10T07:23:39.121Z,11.90
2019-05-10T07:26:24.672Z,13.23
2019-05-10T07:29:03.940Z,13.40
2019-05-10T07:31:50.148Z,13.30
2019-05-10T07:34:48.816Z,10.33
2019-05-10T07:41:29.367Z,13.57
2019-05-10T07:44:12.375Z,10.80
2019-05-10T07:49:52.579Z,15.07
2019-05-10T07:52:43.119Z,13.57
2019-05-10T07:55:27.731Z,11.27
2019-05-10T08:01:29.520Z,11.00
2019-05-10T08:04:02.230Z,12.23
2019-05-10T08:06:47.657Z,12.03
2019-05-10T08:09:31.645Z,16.90
2019-05-10T08:15:16.142Z,17.37
2019-05-10T08:24:13.363Z,14.17
2019-05-10T08:27:09.798Z,16.20
2019-05-10T08:32:48.543Z,18.07
2019-05-10T08:35:30.389Z,15.67
2019-05-10T08:38:13.180Z,16.10
2019-05-10T08:40:59.615Z,17.77
2019-05-10T08:44:16.567Z,14.10
2019-05-10T08:46:58.374Z,14.40
2019-05-10T08:49:56.906Z,17.33
2019-05-10T08:52:34.877Z,14.83
2019-05-10T08:58:21.614Z,19.60
2019-05-10T09:01:16.284Z,19.30
2019-05-10T09:03:59.309Z,22.77
2019-05-10T09:06:35.796Z,20.03
2019-05-10T09:09:18.433Z,16.30
2019-05-10T09:12:06.606Z,17.33
2019-05-10T09:14:43.856Z,18.75
2019-05-10T09:20:26.880Z,17.47
2019-05-10T09:23:19.875Z,14.60
2019-05-10T09:25:55.327Z,15.20
2019-05-10T09:31:45.890Z,13.77
2019-05-10T09:34:27.057Z,15.53
2019-05-10T09:37:14.326Z,17.90
2019-05-10T09:40:04.247Z,20.33
2019-05-10T09:42:40.063Z,19.80
2019-05-10T09:45:17.350Z,21.87
2019-05-10T09:51:13.879Z,20.88
2019-05-10T09:53:57.598Z,15.30
2019-05-10T09:56:52.236Z,15.07
2019-05-10T10:02:33.691Z,16.17
2019-05-10T10:05:10.434Z,16.63
2019-05-10T10:07:53.267Z,14.77
2019-05-10T10:10:37.790Z,18.30
2019-05-10T10:13:36.017Z,25.87
2019-05-10T10:19:13.059Z,47.00
2019-05-10T10:21:57.660Z,30.87
2019-05-10T10:24:48.969Z,18.48
2019-05-10T10:27:34.966Z,21.73
2019-05-10T10:30:31.190Z,21.67
2019-05-10T10:33:11.188Z,19.23
2019-05-10T10:35:56.456Z,17.83
2019-05-10T10:38:45.343Z,16.13
2019-05-10T10:41:31.526Z,15.13
2019-05-10T10:44:08.451Z,21.33
2019-05-10T10:46:53.727Z,25.43
2019-05-10T10:49:50.248Z,22.83
2019-05-10T10:52:34.695Z,27.27
2019-05-10T10:55:13.604Z,25.73
2019-05-10T11:01:20.213Z,29.18
2019-05-10T11:03:49.148Z,30.67
2019-05-10T11:06:29.246Z,32.43
2019-05-10T11:12:14.641Z,27.70
2019-05-10T11:15:03.825Z,23.07
2019-05-10T11:17:47.412Z,24.50
2019-05-10T11:20:27.260Z,28.67
2019-05-10T11:23:06.862Z,30.70
2019-05-10T11:25:54.849Z,25.57
2019-05-10T11:28:43.467Z,41.93
2019-05-10T11:31:21.362Z,22.27
2019-05-10T11:34:06.071Z,30.43
2019-05-10T11:36:50.991Z,23.03
2019-05-10T11:39:42.126Z,23.03
2019-05-10T11:42:21.285Z,26.40
2019-05-10T11:45:05.607Z,23.73
2019-05-10T11:47:54.455Z,24.50
2019-05-10T11:50:35.655Z,20.87
2019-05-10T11:53:17.649Z,23.10
2019-05-10T11:55:57.947Z,22.97
2019-05-10T11:58:46.072Z,21.20
2019-05-10T12:01:27.926Z,30.32
2019-05-10T12:04:24.087Z,34.47
2019-05-10T12:07:02.767Z,27.00
2019-05-10T12:09:43.742Z,24.10
2019-05-10T12:12:50.300Z,23.80
2019-05-10T12:15:38.069Z,25.43
2019-05-10T12:18:26.283Z,29.83
2019-05-10T12:21:44.313Z,33.30
2019-05-10T12:27:55.513Z,30.97
2019-05-10T12:30:57.628Z,23.73
2019-05-10T12:33:44.767Z,23.33
2019-05-10T12:36:31.794Z,28.20
2019-05-10T12:39:13.445Z,26.87
2019-05-10T12:41:58.780Z,32.53
2019-05-10T12:44:48.068Z,33.07
2019-05-10T12:47:33.782Z,30.00
2019-05-10T12:50:20.222Z,28.27
2019-05-10T12:53:15.784Z,25.63
2019-05-10T12:56:07.691Z,25.20
2019-05-10T12:58:59.684Z,25.90
2019-05-10T13:01:43.520Z,23.47
2019-05-10T13:04:40.744Z,23.53
2019-05-10T13:07:25.443Z,21.33
2019-05-10T13:10:15.193Z,23.60
2019-05-10T13:16:09.889Z,22.50
2019-05-10T13:18:57.955Z,25.88
2019-05-10T13:22:14.287Z,91.17
2019-05-10T13:28:41.344Z,31.53
2019-05-10T13:43:17.403Z,24.97
2019-05-10T13:49:50.310Z,26.40
2019-05-10T13:52:47.786Z,25.70
2019-05-10T13:59:14.002Z,26.70
2019-05-10T14:02:00.858Z,24.70
2019-05-10T14:15:55.455Z,27.80
2019-05-10T14:25:36.143Z,25.67
2019-05-10T14:28:39.105Z,24.00
2019-05-10T14:31:24.058Z,24.73
2019-05-10T14:34:15.561Z,25.37
2019-05-10T14:37:01.110Z,24.97
2019-05-10T14:40:00.571Z,28.17
2019-05-10T15:04:47.070Z,24.80
2019-05-10T15:31:00.646Z,115.87
2019-05-10T15:38:20.613Z,44.37
2019-05-10T15:41:34.859Z,32.30
2019-05-10T15:44:30.380Z,31.27
2019-05-10T15:47:20.595Z,29.10
2019-05-10T15:50:14.380Z,28.33
2019-05-10T15:53:00.917Z,28.20
2019-05-10T15:59:19.273Z,64.67
2019-05-10T16:02:08.647Z,34.15
2019-05-10T16:08:17.759Z,27.53
2019-05-10T16:14:14.881Z,27.57
2019-05-10T16:17:02.766Z,28.53
2019-05-10T16:19:59.469Z,30.20
2019-05-10T16:22:47.134Z,29.40
2019-05-10T16:25:32.919Z,28.07
2019-05-10T16:28:20.639Z,24.93
2019-05-10T16:31:05.003Z,30.57
2019-05-10T16:34:00.392Z,30.00
2019-05-10T16:36:42.557Z,31.20
2019-05-10T16:39:22.830Z,29.73
2019-05-10T16:42:03.454Z,31.67
2019-05-10T16:44:45.860Z,31.70
2019-05-10T16:47:26.852Z,36.37
2019-05-10T16:50:11.122Z,33.67
2019-05-10T16:53:05.634Z,34.78
2019-05-10T16:55:42.965Z,31.43
2019-05-10T16:58:27.640Z,30.90
2019-05-10T17:01:10.105Z,30.47
2019-05-10T17:07:00.962Z,30.80
2019-05-10T17:09:41.894Z,32.03
2019-05-10T17:12:27.777Z,32.10
2019-05-10T17:15:11.767Z,31.57
2019-05-10T17:18:10.364Z,31.83
2019-05-10T17:20:50.932Z,32.43
2019-05-10T17:26:52.907Z,33.93
2019-05-10T17:29:37.652Z,35.33
2019-05-10T17:32:18.818Z,32.43
2019-05-10T17:35:06.784Z,32.97
2019-05-10T17:40:51.237Z,30.47
2019-05-10T17:43:32.679Z,32.17
2019-05-10T17:49:12.915Z,32.10
2019-05-10T17:51:52.543Z,34.37
2019-05-10T17:57:48.725Z,36.45
2019-05-10T18:00:26.781Z,32.57
2019-05-10T18:03:07.779Z,34.80
2019-05-10T18:05:53.175Z,32.27
2019-05-10T18:11:31.133Z,33.90
2019-05-10T18:14:17.300Z,36.03
2019-05-10T18:16:54.286Z,34.87
2019-05-10T18:19:36.076Z,33.53
2019-05-10T18:22:17.074Z,39.25
2019-05-10T18:25:00.856Z,34.30
2019-05-10T18:27:43.885Z,112.12
2019-05-10T18:30:24.821Z,97.53
2019-05-10T18:33:14.717Z,57.73
2019-05-10T18:35:59.363Z,40.90
2019-05-10T18:38:39.121Z,34.77
2019-05-10T18:41:19.145Z,35.53
2019-05-10T18:43:58.829Z,33.60
2019-05-10T18:46:40.510Z,34.83
2019-05-10T18:49:29.174Z,37.57
2019-05-10T18:52:06.739Z,39.57
2019-05-10T18:54:50.030Z,38.60
2019-05-10T18:57:33.147Z,42.37
2019-05-10T19:00:17.620Z,35.47
2019-05-10T19:02:57.327Z,40.00
2019-05-10T19:05:42.034Z,37.30
2019-05-10T19:08:21.903Z,43.07
2019-05-10T19:11:06.273Z,43.60
2019-05-10T19:13:53.832Z,41.13
2019-05-10T19:16:32.118Z,40.87
2019-05-10T19:19:14.313Z,39.70
2019-05-10T19:22:02.837Z,46.77
2019-05-10T19:24:43.548Z,43.83
2019-05-10T19:27:25.375Z,51.05
2019-05-10T19:30:08.503Z,45.90
2019-05-10T19:32:51.301Z,41.57
2019-05-10T19:35:35.848Z,46.83
2019-05-10T19:38:14.393Z,48.70
2019-05-10T19:40:55.560Z,43.97
2019-05-10T19:43:36.163Z,44.57
2019-05-10T19:46:15.416Z,43.30
2019-05-10T19:48:58.330Z,46.03
2019-05-10T19:51:42.149Z,51.25
2019-05-10T19:54:21.324Z,43.60
2019-05-10T19:57:01.513Z,47.67
2019-05-10T19:59:43.884Z,45.77
2019-05-10T20:02:25.833Z,45.03
2019-05-10T20:05:07.030Z,45.63
2019-05-10T20:07:48.690Z,44.03
2019-05-10T20:10:28.589Z,45.33
2019-05-10T20:13:12.017Z,50.13
2019-05-10T20:15:50.231Z,49.80
2019-05-10T20:18:32.562Z,50.07
2019-05-10T20:21:13.465Z,48.47
2019-05-10T20:23:56.369Z,48.73
2019-05-10T20:26:37.857Z,50.17
2019-05-10T20:29:18.407Z,59.98
2019-05-10T20:32:00.394Z,53.10
2019-05-10T20:34:42.702Z,57.43
2019-05-10T20:37:21.713Z,54.80
2019-05-10T20:40:00.734Z,56.83
2019-05-10T20:42:43.025Z,58.93
2019-05-10T20:45:22.292Z,59.97
2019-05-10T20:48:04.514Z,59.03
2019-05-10T20:50:45.076Z,54.80
2019-05-10T20:53:26.351Z,66.97
2019-05-10T20:56:07.782Z,59.23
2019-05-10T20:58:49.626Z,62.10
2019-05-10T21:01:31.426Z,62.40
2019-05-10T21:04:17.689Z,61.70
2019-05-10T21:06:59.284Z,56.87
2019-05-10T21:09:41.535Z,57.87
2019-05-10T21:12:21.550Z,58.40
2019-05-10T21:15:03.320Z,63.33
2019-05-10T21:17:44.295Z,60.47
2019-05-10T21:20:22.890Z,59.93
2019-05-10T21:23:03.112Z,54.00
2019-05-10T21:25:45.770Z,57.37
2019-05-10T21:28:27.927Z,55.67
2019-05-10T21:31:09.961Z,65.95
2019-05-10T21:34:07.361Z,59.83
2019-05-10T21:36:33.875Z,58.00
2019-05-10T21:39:12.484Z,60.43
2019-05-10T21:41:58.778Z,60.37
2019-05-10T21:44:52.198Z,58.07
2019-05-10T21:47:34.003Z,56.33
2019-05-10T21:50:14.731Z,59.53
2019-05-10T21:52:58.037Z,57.40
2019-05-10T21:55:40.079Z,61.67
2019-05-10T21:58:19.057Z,61.37
2019-05-10T22:01:01.607Z,59.50
2019-05-10T22:03:40.979Z,65.32
2019-05-10T22:06:26.568Z,61.47
2019-05-10T22:09:06.989Z,61.43
2019-05-10T22:11:48.140Z,61.33
2019-05-10T22:14:30.924Z,61.80
2019-05-10T22:17:12.483Z,60.23
2019-05-10T22:19:54.612Z,59.27
2019-05-10T22:22:37.556Z,61.27
2019-05-10T22:25:17.770Z,59.00
2019-05-10T22:28:05.815Z,67.85
2019-05-10T22:30:44.939Z,61.93
2019-05-10T22:33:23.889Z,59.43
2019-05-10T22:39:06.876Z,60.73
2019-05-10T22:41:45.998Z,55.67
2019-05-10T22:44:28.224Z,63.17
2019-05-10T22:47:07.939Z,61.80
2019-05-10T22:49:53.712Z,59.03
2019-05-10T22:52:35.115Z,60.37
2019-05-10T22:55:13.581Z,59.57
2019-05-10T22:57:54.384Z,70.50
2019-05-10T23:00:35.873Z,67.60
2019-05-10T23:03:17.169Z,65.87
2019-05-10T23:06:01.455Z,56.93
2019-05-10T23:08:41.055Z,56.70
2019-05-10T23:11:22.691Z,53.33
2019-05-10T23:14:04.913Z,59.93
2019-05-10T23:16:50.469Z,63.53
2019-05-10T23:19:30.113Z,64.73
2019-05-10T23:22:15.988Z,65.97
2019-05-10T23:24:57.736Z,60.33
2019-05-10T23:27:41.261Z,58.63
2019-05-10T23:33:26.274Z,62.37
2019-05-10T23:36:06.941Z,79.12
2019-05-10T23:38:52.283Z,62.47
2019-05-10T23:41:33.466Z,54.50
2019-05-10T23:44:17.035Z,57.37
2019-05-10T23:46:59.459Z,54.60
2019-05-10T23:49:40.256Z,56.33
2019-05-10T23:52:22.345Z,64.73
2019-05-10T23:55:01.464Z,114.50
2019-05-10T23:57:53.373Z,82.67
